ENOA weather

Oseberg A Platform
Norway

Public forecast

Using degrees Celsius for public forecast. Weather courtesy of forecast.io.

Current aviation weather report (METAR) for Oseberg A Platform

Retrieved 2019/12/15 15:20 UTC (5 minutes ago):

ENOA 151520Z 16018KT 9999 -RA BKN020TCU 06/02 Q0980 W///S5

Aviation forecast (TAF) for Oseberg A Platform

Retrieved 2019/12/15 15:57 UTC (0 seconds ago):

TAF TAF ENOA 151400Z 1515/1615 15018KT 9999 -SHRA FEW012TCU SCT030 TEMPO 1515/1608 SHRA BKN012 SCT018CB PROB30 1600/1606 TS BECMG 1521/1523 26020KT BECMG 1609/1612 19015KT